aviador You're here:

OMAD Decoded Metar

ABU DHABI in UNITED ARAB EMIRATES
Report Time2017-09-21 19:00:00
UTC Time2017-09-21 19:30:39
Flight Rules vfr VFR
Wind020° at 03 kt
W.Decomp.*RWY 31: 1.1 kt HW 2.8 kt RCW
W.Rank020° ranks 9
Current wind is below 020° avg. (5.7)
Visibility9999 m
Phenomena:N/A
Clouds:N/A
Expected CloudBase > 4,000 ft AGL from Temp-Dew spread
CeilingNone
Temp33°C (ISA +18)
Dew Point23°C (56% RH)
Heat Index38.1°C
QNH1002 hPa
Density Alt2,802 ft
Elevation10 ft
Report Wrong Elevation
Raw Report
METAR OMAD 211900Z 02003KT 330V070 CAVOK 33/23 Q1002 NOSIG=

Extra information for OMAD:More info

Metar Taf Metar & Taf Last 4 Metars F.Rules Stats Wind Profile Meteogram Temp Stats Airport Information Weather charts Add Link Nearby VenuesMetar ALERT Operation Metar Decoded Social comments